Meteo Giornale » Osservazioni meteo Italia » Capo Mele

ore: 06:55 - Osservazioni Meteo Capo Mele
Lat. 43° 57' N Lon. 8° 10' E Alt. 220 metri s.l.m.

poco_nuvoloso Europe/Rome

8 °C

Poco Nuvoloso

Temp. 24 Ore

8 °C

19 °C

Ovest/Sud-Ovest

9.3 Km/h

Dew point 3 °C

Umidità 70 %

Visibilità  10 Km

Il sole sorge alle ore 06:16

Il sole tramonta alle ore 18:48

Data e Ora Cielo e Fenomeni T °C DP °C Um. % Pres. hPa Vis. km Vento km/h
Oggi h: 06:55 poco_nuvoloso Poco Nuvoloso 8 3 70 1017 10 O/SO 9.3
Oggi h: 05:55 sereno Sereno 8 4 75 1017 10 O/SO 11.1
Oggi h: 04:55 sereno Sereno 9 6 81 1017 10 O/SO 24
Oggi h: 03:55 sereno Sereno 8 7 93 1018 10 O/SO 42.6
Oggi h: 03:55 sereno Sereno 9 8 93 1017 10 O/SO 38.8
Oggi h: 01:55 nuvoloso Nuvoloso 9 8 93 1018 10 SO 44.4
Oggi h: 00:55 nuvoloso Nuvoloso 9 9 100 1018 10 SO 48.1
Ieri h: 23:55 nuvoloso Nuvoloso 9 7 87 1018 10 SO 48.1
Ieri h: 22:55 nuvoloso Nuvoloso 9 8 93 1018 10 SO 29.6
Ieri h: 21:55 nuvoloso Nuvoloso 9 9 100 1018 10 S/SO 20.3
Ieri h: 20:55 coperto_pioggia Pioggia Debole 9 9 100 1018 8 S/SO 16.7
Ieri h: 19:55 molto_nuvoloso Molto Nuvoloso 9 6 81 1018 10 O 22.2
Ieri h: 18:55 molto_nuvoloso Molto Nuvoloso 8 7 93 1017 10 O/SO 50
Ieri h: 17:55 coperto_pioggia Pioggia Debole 9 9 100 1017 6 SO 18.5
Ieri h: 16:55 coperto_pioggia Pioggia Debole 11 11 100 1018 6 SO 7.4
Ieri h: 15:55 nuvoloso Nuvoloso 13 12 93 1019 10 N/NE 9.3
Ieri h: 14:55 nuvoloso Nuvoloso 14 13 93 1019 10 N/NE 18.5
Ieri h: 13:55 nuvoloso Nuvoloso 15 12 82 1020 10 E/NE 24
Ieri h: 12:55 nuvoloso Nuvoloso 19 12 63 1020 10 E/NE 29.6
Ieri h: 11:55 poco_nuvoloso Poco Nuvoloso 19 11 59 1021 10 NE 24
Ieri h: 10:55 sereno Sereno 18 11 63 1021 10 N/NE 24
Ieri h: 09:55 sereno Sereno 18 11 63 1021 10 N/NE 24
Ieri h: 08:55 sereno Sereno 16 10 67 1021 10 N 22.2